Time;durP1;ratioP1;P1;durP2;ratioP2;P2;SDS_P1;SDS_P2;PMS_P1;PMS_P2;Temp;Humidity;BMP_temperature;BMP_pressure;BME280_temperature;BME280_humidity;BME280_pressure;Samples;Min_cycle;Max_cycle;Signal;HPM_P1;HPM_P2
2021/01/27 00:01:54;;;;;;;5.78;5.17;;;;;;;1.52;100.00;100233.91;1762460;78;21202;-91
2021/01/27 00:04:22;;;;;;;5.83;5.17;;;;;;;1.50;100.00;100241.66;1748276;79;21174;-91
2021/01/27 00:06:51;;;;;;;6.15;4.97;;;;;;;1.51;100.00;100233.53;1778460;79;21613;-91
2021/01/27 00:09:19;;;;;;;5.20;4.65;;;;;;;1.51;100.00;100228.39;1745203;81;21156;-91
2021/01/27 00:12:16;;;;;;;5.85;5.25;;;;;;;1.52;100.00;100221.08;1736684;82;21156;-91
2021/01/27 00:14:46;;;;;;;4.75;4.35;;;;;;;1.53;100.00;100230.42;1721316;82;21385;-91
2021/01/27 00:17:14;;;;;;;5.22;4.37;;;;;;;1.53;100.00;100218.44;1733727;82;21136;-91
2021/01/27 00:19:46;;;;;;;4.78;4.20;;;;;;;1.52;100.00;100207.79;1733969;82;21140;-91
2021/01/27 00:22:14;;;;;;;5.58;4.62;;;;;;;1.51;100.00;100204.84;1734068;82;21171;-92
2021/01/27 00:24:43;;;;;;;5.22;4.47;;;;;;;1.53;100.00;100204.76;1733854;82;21188;-90
2021/01/27 00:30:42;;;;;;;5.67;4.67;;;;;;;1.50;100.00;100181.35;1732355;82;21239;-91
2021/01/27 00:33:39;;;;;;;5.37;4.60;;;;;;;1.50;100.00;100180.53;1734032;82;21132;-91
2021/01/27 00:36:36;;;;;;;5.90;4.53;;;;;;;1.49;100.00;100169.42;1733878;82;21497;-91
2021/01/27 00:39:32;;;;;;;5.12;4.42;;;;;;;1.48;100.00;100181.05;1734005;82;21168;-91
2021/01/27 00:42:00;;;;;;;7.17;4.90;;;;;;;1.47;100.00;100173.81;1703655;82;21272;-91
2021/01/27 00:44:29;;;;;;;7.20;5.62;;;;;;;1.46;100.00;100168.29;1699980;83;21132;-91
2021/01/27 00:47:04;;;;;;;6.50;5.00;;;;;;;1.47;100.00;100169.11;1762091;81;21553;-90
2021/01/27 00:49:33;;;;;;;5.30;4.58;;;;;;;1.46;100.00;100165.72;1762951;79;21165;-90
2021/01/27 00:52:08;;;;;;;6.28;4.97;;;;;;;1.46;100.00;100160.59;1774294;79;21145;-91
2021/01/27 00:54:37;;;;;;;5.20;4.62;;;;;;;1.46;100.00;100163.16;1773214;80;21479;-91
2021/01/27 01:00:36;;;;;;;5.50;5.00;;;;;;;1.46;100.00;100156.74;1773385;80;21126;-91
2021/01/27 01:03:13;;;;;;;5.70;4.90;;;;;;;1.46;100.00;100158.02;1766659;80;21137;-91
2021/01/27 01:05:44;;;;;;;5.47;4.95;;;;;;;1.48;100.00;100164.36;1778176;79;21121;-91
2021/01/27 01:08:44;;;;;;;5.72;4.87;;;;;;;1.48;100.00;100158.80;1780095;79;22124;-90
2021/01/27 01:11:16;;;;;;;5.10;4.58;;;;;;;1.48;100.00;100158.80;1778546;80;21154;-90
2021/01/27 01:13:46;;;;;;;5.50;5.00;;;;;;;1.50;100.00;100168.98;1777128;80;21146;-91
2021/01/27 01:16:49;;;;;;;5.08;4.58;;;;;;;1.50;100.00;100173.66;1781124;80;21157;-90
2021/01/27 01:19:18;;;;;;;4.70;4.30;;;;;;;1.51;100.00;100176.61;1776536;80;21145;-91
2021/01/27 01:21:53;;;;;;;5.25;4.75;;;;;;;1.54;100.00;100174.34;1776206;80;21295;-90
2021/01/27 01:24:21;;;;;;;4.92;4.30;;;;;;;1.58;100.00;100169.02;1781667;80;21145;-91
2021/01/27 01:30:50;;;;;;;4.75;4.20;;;;;;;1.64;100.00;100149.94;1775918;80;21177;-90
2021/01/27 01:33:23;;;;;;;4.50;3.58;;;;;;;1.65;100.00;100138.78;1775872;80;21142;-91
2021/01/27 01:35:53;;;;;;;4.08;3.75;;;;;;;1.62;100.00;100131.20;1775931;80;21204;-90
2021/01/27 01:38:50;;;;;;;3.92;3.50;;;;;;;1.60;100.00;100135.59;1775896;80;21149;-91
2021/01/27 01:41:24;;;;;;;4.22;3.50;;;;;;;1.58;100.00;100130.52;1776036;80;21165;-91
2021/01/27 01:43:52;;;;;;;3.92;3.22;;;;;;;1.58;100.00;100136.11;1775910;80;21634;-91
2021/01/27 01:46:24;;;;;;;4.33;3.60;;;;;;;1.58;100.00;100127.95;1775982;80;21110;-91
2021/01/27 01:48:57;;;;;;;3.40;3.10;;;;;;;1.55;100.00;100124.25;1775854;80;21522;-91
2021/01/27 01:51:58;;;;;;;3.58;3.27;;;;;;;1.56;100.00;100121.22;1775844;79;21067;-90
2021/01/27 01:54:46;;;;;;;3.60;3.30;;;;;;;1.55;100.00;100119.13;1776008;79;21098;-91
2021/01/27 01:57:19;;;;;;;4.37;3.22;;;;;;;1.55;100.00;100120.41;1777823;79;21462;-91
2021/01/27 02:00:05;;;;;;;3.42;3.00;;;;;;;1.57;100.00;100111.34;1774589;80;21126;-90
2021/01/27 02:02:37;;;;;;;2.98;2.70;;;;;;;1.55;100.00;100108.86;1708378;83;21415;-91
2021/01/27 02:05:14;;;;;;;3.20;2.90;;;;;;;1.54;100.00;100105.06;1709424;83;21611;-92
2021/01/27 02:07:43;;;;;;;3.00;2.70;;;;;;;1.54;100.00;100103.34;1709028;83;21245;-91
2021/01/27 02:10:14;;;;;;;2.42;2.20;;;;;;;1.54;100.00;100109.75;1708788;83;21203;-91
2021/01/27 02:13:19;;;;;;;3.10;2.60;;;;;;;1.52;100.00;100106.42;1709329;83;21171;-91
2021/01/27 02:16:22;;;;;;;2.15;1.95;;;;;;;1.55;100.00;100105.01;1708068;83;21455;-91
2021/01/27 02:19:08;;;;;;;2.40;2.20;;;;;;;1.54;100.00;100099.92;1710621;83;21219;-92
2021/01/27 02:22:03;;;;;;;2.40;2.20;;;;;;;1.54;100.00;100084.52;1707960;83;21195;-91
2021/01/27 02:25:16;;;;;;;3.12;2.40;;;;;;;1.53;100.00;100087.98;1711470;83;21579;-91
2021/01/27 02:27:54;;;;;;;2.77;2.58;;;;;;;1.52;100.00;100091.02;1711294;83;21168;-91
2021/01/27 02:30:39;;;;;;;3.33;2.33;;;;;;;1.52;100.00;100101.28;1707960;83;22150;-92
2021/01/27 02:33:46;;;;;;;2.65;2.17;;;;;;;1.51;100.00;100101.36;1728099;80;21110;-91
2021/01/27 02:36:25;;;;;;;2.30;2.10;;;;;;;1.51;100.00;100088.53;1752191;80;21134;-92
2021/01/27 02:39:18;;;;;;;2.67;2.33;;;;;;;1.49;100.00;100086.48;1699374;83;21169;-92
2021/01/27 02:42:04;;;;;;;2.55;2.35;;;;;;;1.47;100.00;100087.84;1718440;82;21140;-92
2021/01/27 02:52:13;;;;;;;3.25;2.35;;;;;;;1.43;100.00;100072.66;1729304;83;21155;-92
2021/01/27 02:55:05;;;;;;;2.75;2.45;;;;;;;1.40;100.00;100085.18;1727494;83;21184;-92
2021/01/27 02:57:50;;;;;;;2.60;2.33;;;;;;;1.41;100.00;100072.70;1787445;78;21153;-92
2021/01/27 03:00:50;;;;;;;3.05;2.75;;;;;;;1.40;100.00;100076.20;1782841;79;22052;-91
2021/01/27 03:06:46;;;;;;;3.02;2.60;;;;;;;1.41;100.00;100049.61;1795596;79;21171;-93
2021/01/27 03:09:22;;;;;;;2.98;2.40;;;;;;;1.42;100.00;100050.00;1796306;79;21133;-93
2021/01/27 03:22:26;;;;;;;4.22;2.50;;;;;;;1.41;100.00;100021.39;1796424;79;21058;-91
2021/01/27 03:25:02;;;;;;;1.90;1.80;;;;;;;1.39;100.00;100020.19;1793851;79;21126;-92
2021/01/27 03:27:36;;;;;;;2.52;2.33;;;;;;;1.41;100.00;100022.67;1794189;79;21128;-91
2021/01/27 03:30:09;;;;;;;3.05;2.33;;;;;;;1.42;100.00;100024.34;1793956;79;21340;-91
2021/01/27 03:32:55;;;;;;;3.37;2.30;;;;;;;1.43;100.00;100028.57;1794072;79;21160;-91
2021/01/27 03:35:44;;;;;;;3.08;2.20;;;;;;;1.43;100.00;100020.05;1796648;79;21145;-91
2021/01/27 03:38:38;;;;;;;2.67;2.05;;;;;;;1.44;100.00;100021.72;1796517;79;21145;-91
2021/01/27 03:41:36;;;;;;;2.67;2.35;;;;;;;1.45;100.00;100020.80;1797023;79;21506;-91
2021/01/27 03:44:35;;;;;;;2.05;1.82;;;;;;;1.45;100.00;100013.09;1796842;79;21361;-92
2021/01/27 03:47:15;;;;;;;2.02;1.85;;;;;;;1.42;100.00;100001.25;1796379;79;21612;-91
2021/01/27 03:49:56;;;;;;;2.60;2.37;;;;;;;1.40;100.00;100005.17;1796308;79;21133;-92
2021/01/27 03:52:56;;;;;;;2.25;2.05;;;;;;;1.39;100.00;100003.52;1793306;79;21081;-91
2021/01/27 03:55:36;;;;;;;2.10;1.90;;;;;;;1.41;100.00;100014.98;1796577;79;21137;-91
2021/01/27 03:58:44;;;;;;;2.33;2.12;;;;;;;1.43;100.00;100008.51;1795241;79;22302;-91
2021/01/27 04:08:37;;;;;;;2.60;1.77;;;;;;;1.39;100.00;99987.30;1796506;79;21152;-91
2021/01/27 04:18:53;;;;;;;3.35;2.58;;;;;;;1.48;100.00;99988.16;1796332;79;21193;-90
2021/01/27 04:24:52;;;;;;;3.17;2.85;;;;;;;1.53;100.00;99984.91;1791830;79;21180;-90
2021/01/27 04:27:20;;;;;;;3.10;2.65;;;;;;;1.54;100.00;99977.59;1796185;79;21161;-90
2021/01/27 04:29:48;;;;;;;3.45;2.80;;;;;;;1.53;100.00;99970.79;1796041;79;21562;-90
2021/01/27 04:32:16;;;;;;;3.12;2.67;;;;;;;1.53;100.00;99961.81;1795924;79;21125;-90
2021/01/27 04:34:44;;;;;;;3.55;3.05;;;;;;;1.53;100.00;99957.96;1776119;79;21138;-90
2021/01/27 04:37:12;;;;;;;6.17;3.27;;;;;;;1.52;100.00;99963.99;1796196;79;21070;-90
2021/01/27 04:43:40;;;;;;;3.37;3.07;;;;;;;1.50;100.00;99971.39;1796601;79;21189;-90
2021/01/27 04:46:27;;;;;;;4.97;3.40;;;;;;;1.51;100.00;99970.49;1787633;78;21152;-89
2021/01/27 04:49:11;;;;;;;3.22;2.83;;;;;;;1.51;100.00;99957.66;1735419;82;21164;-90
2021/01/27 04:51:57;;;;;;;4.37;2.80;;;;;;;1.51;100.00;99948.68;1787297;78;21105;-90
2021/01/27 04:55:01;;;;;;;3.85;3.37;;;;;;;1.53;100.00;99948.98;1781307;78;21189;-90
2021/01/27 04:57:44;;;;;;;11.65;3.50;;;;;;;1.57;100.00;99954.33;1793664;79;22147;-90
2021/01/27 05:00:45;;;;;;;6.30;4.67;;;;;;;1.61;100.00;99949.05;1791319;79;21569;-89
2021/01/27 05:03:23;;;;;;;8.70;7.67;;;;;;;1.67;100.00;99941.05;1794353;78;21157;-89
2021/01/27 05:05:56;;;;;;;4.70;4.22;;;;;;;1.67;100.00;99943.62;1793991;79;21153;-89
2021/01/27 05:08:43;;;;;;;12.30;4.55;;;;;;;1.66;100.00;99941.52;1790664;79;21169;-89
2021/01/27 05:11:14;;;;;;;6.12;5.53;;;;;;;1.67;100.00;99939.33;1792361;79;21212;-90
2021/01/27 05:13:50;;;;;;;5.85;5.22;;;;;;;1.69;100.00;99939.25;1793775;79;21609;-90
2021/01/27 05:16:25;;;;;;;5.85;4.97;;;;;;;1.70;100.00;99942.20;1793744;79;21162;-90
2021/01/27 05:19:00;;;;;;;5.47;2.87;;;;;;;1.72;100.00;99939.93;1796029;79;21102;-89
2021/01/27 05:21:39;;;;;;;2.65;2.45;;;;;;;1.72;100.00;99942.96;1786972;78;21113;-89
2021/01/27 05:24:09;;;;;;;3.40;3.10;;;;;;;1.71;100.00;99939.55;1781675;79;21435;-89
2021/01/27 05:26:42;;;;;;;4.97;4.30;;;;;;;1.71;100.00;99942.58;1795979;79;21113;-90
2021/01/27 05:29:27;;;;;;;3.55;3.12;;;;;;;1.72;100.00;99940.39;1772859;79;21141;-92
2021/01/27 05:32:21;;;;;;;3.72;2.90;;;;;;;1.73;100.00;99944.59;1794993;79;21035;-92
2021/01/27 05:35:32;;;;;;;3.20;2.90;;;;;;;1.75;100.00;99940.69;1796113;79;37149;-92
2021/01/27 05:38:35;;;;;;;3.25;2.80;;;;;;;1.74;100.00;99938.56;1796090;79;22135;-90
2021/01/27 05:41:24;;;;;;;4.12;3.20;;;;;;;1.74;100.00;99929.58;1786643;78;21211;-90
2021/01/27 05:44:12;;;;;;;3.45;2.87;;;;;;;1.74;100.00;99923.16;1777400;78;21192;-89
2021/01/27 05:46:41;;;;;;;6.37;3.22;;;;;;;1.74;100.00;99923.16;1792588;79;21165;-89
2021/01/27 05:49:21;;;;;;;5.58;4.08;;;;;;;1.75;100.00;99918.41;1784639;79;21184;-89
2021/01/27 05:51:49;;;;;;;6.65;4.08;;;;;;;1.80;100.00;99917.74;1748432;81;22220;-89
2021/01/27 05:54:26;;;;;;;4.70;3.67;;;;;;;1.88;100.00;99916.87;1763973;81;21105;-89
2021/01/27 05:56:55;;;;;;;4.35;3.70;;;;;;;1.93;100.00;99914.55;1764045;80;21617;-89
2021/01/27 05:59:27;;;;;;;7.67;5.08;;;;;;;1.94;100.00;99906.76;1764073;81;21566;-89
2021/01/27 06:02:04;;;;;;;6.03;4.20;;;;;;;2.00;100.00;99894.88;1773692;78;21158;-88
2021/01/27 06:04:34;;;;;;;6.53;4.45;;;;;;;2.02;100.00;99885.38;1770525;78;21789;-89
2021/01/27 06:07:08;;;;;;;5.58;4.25;;;;;;;2.03;100.00;99884.47;1727514;80;21202;-89
2021/01/27 06:09:48;;;;;;;4.08;3.58;;;;;;;2.04;100.00;99879.71;1742175;81;21195;-89
2021/01/27 06:12:25;;;;;;;5.37;4.28;;;;;;;2.03;100.00;99884.47;1722005;81;21160;-89
2021/01/27 06:15:17;;;;;;;5.90;3.62;;;;;;;2.06;100.00;99880.91;1750867;80;21072;-89
2021/01/27 06:17:47;;;;;;;;;;;;;;;2.06;100.00;99873.20;1754303;80;22270;-89
2021/01/27 06:20:33;;;;;;;7.00;4.00;;;;;;;2.08;100.00;99877.81;1754666;80;20271;-89
2021/01/27 06:23:33;;;;;;;4.90;3.95;;;;;;;2.11;100.00;99868.67;1754720;80;21210;-90
2021/01/27 06:26:27;;;;;;;5.00;3.92;;;;;;;2.11;100.00;99866.11;1753807;81;21155;-91
2021/01/27 06:29:17;;;;;;;4.03;3.62;;;;;;;2.16;100.00;99861.55;1754050;81;21115;-91
2021/01/27 06:32:17;;;;;;;7.75;4.62;;;;;;;2.28;100.00;99864.40;1754907;81;21352;-90
2021/01/27 06:35:05;;;;;;;7.28;4.10;;;;;;;2.39;100.00;99862.08;1751697;81;21520;-90
2021/01/27 06:37:56;;;;;;;5.92;4.42;;;;;;;2.56;100.00;99853.48;1754097;80;21179;-90
2021/01/27 06:40:39;;;;;;;7.72;5.90;;;;;;;2.70;100.00;99850.14;1735162;80;21501;-89
2021/01/27 06:43:27;;;;;;;8.15;6.10;;;;;;;2.83;100.00;99849.86;1731616;80;21107;-89
2021/01/27 06:46:40;;;;;;;6.05;5.42;;;;;;;2.83;100.00;99852.44;1735018;80;21547;-90
2021/01/27 06:49:47;;;;;;;7.70;6.33;;;;;;;2.93;100.00;99849.33;1750388;80;21175;-90
2021/01/27 06:53:02;;;;;;;8.90;5.80;;;;;;;3.11;100.00;99840.59;1908892;74;23049;-88
2021/01/27 06:55:59;;;;;;;10.58;6.58;;;;;;;3.16;100.00;99846.30;1848861;77;21109;-89
2021/01/27 06:59:08;;;;;;;10.30;6.45;;;;;;;3.28;100.00;99841.37;1848841;77;21505;-89
2021/01/27 07:02:25;;;;;;;10.32;6.70;;;;;;;3.30;100.00;99839.08;1848691;77;21034;-89
2021/01/27 07:05:40;;;;;;;13.10;6.58;;;;;;;3.34;100.00;99834.59;1843555;76;21050;-90
2021/01/27 07:08:36;;;;;;;29.42;8.93;;;;;;;3.47;100.00;99841.15;1823956;77;21554;-89
2021/01/27 07:11:27;;;;;;;21.60;7.53;;;;;;;3.52;100.00;99835.73;1832620;77;21169;-90
2021/01/27 07:14:13;;;;;;;25.90;8.25;;;;;;;3.62;100.00;99834.29;1819990;77;21326;-88
2021/01/27 07:17:07;;;;;;;27.32;9.18;;;;;;;3.68;100.00;99834.39;1809637;79;21121;-89
2021/01/27 07:19:53;;;;;;;15.93;9.00;;;;;;;3.73;100.00;99832.37;1826929;77;21153;-89
2021/01/27 07:23:09;;;;;;;16.40;11.05;;;;;;;3.79;100.00;99832.84;1848524;77;21083;-88
2021/01/27 07:26:13;;;;;;;19.77;10.20;;;;;;;3.83;100.00;99833.92;1848350;77;21112;-87
2021/01/27 07:29:11;;;;;;;13.32;9.45;;;;;;;3.81;100.00;99842.20;1778617;76;21384;-87
2021/01/27 07:32:04;;;;;;;15.80;11.40;;;;;;;3.92;100.00;99838.53;1826262;77;21599;-88
2021/01/27 07:34:50;;;;;;;16.90;11.53;;;;;;;4.00;100.00;99838.91;1811236;77;21155;-87
2021/01/27 07:37:32;;;;;;;24.40;12.35;;;;;;;4.05;100.00;99839.92;1826732;77;21135;-87
2021/01/27 07:40:24;;;;;;;24.32;14.93;;;;;;;4.10;100.00;99836.16;1755393;80;21175;-88
2021/01/27 07:43:21;;;;;;;24.98;16.48;;;;;;;4.17;100.00;99831.91;1833613;77;21369;-87
2021/01/27 07:45:55;;;;;;;26.85;17.50;;;;;;;4.20;100.00;99831.26;1836441;77;21132;-88
2021/01/27 07:48:46;;;;;;;25.80;16.82;;;;;;;4.25;100.00;99832.27;1814663;78;21177;-88
2021/01/27 07:51:28;;;;;;;30.20;18.62;;;;;;;4.31;100.00;99835.75;1757788;80;21218;-88
2021/01/27 07:54:05;;;;;;;;;;;;;;;4.36;100.00;99822.58;1838536;77;21135;-88
2021/01/27 07:57:02;;;;;;;29.80;18.95;;;;;;;4.38;100.00;99825.42;1835415;76;21198;-88
2021/01/27 07:59:51;;;;;;;35.28;20.92;;;;;;;4.38;100.00;99824.13;1801624;77;21152;-88
2021/01/27 08:02:27;;;;;;;42.15;27.50;;;;;;;4.52;100.00;99809.58;1838205;77;21083;-88
2021/01/27 08:05:04;;;;;;;40.75;25.32;;;;;;;4.52;100.00;99809.58;1830716;77;21447;-88
2021/01/27 08:07:40;;;;;;;39.00;24.70;;;;;;;4.56;100.00;99804.14;1834184;76;21121;-88
2021/01/27 08:10:16;;;;;;;38.83;22.70;;;;;;;4.58;100.00;99789.84;1814108;78;21376;-88
2021/01/27 08:12:59;;;;;;;32.78;22.35;;;;;;;4.60;100.00;99791.03;1831060;76;21086;-88
2021/01/27 08:15:32;;;;;;;30.52;20.27;;;;;;;4.62;100.00;99787.42;1809403;77;21192;-87
2021/01/27 08:18:15;;;;;;;28.85;19.12;;;;;;;4.63;100.00;99781.34;1828533;76;21685;-88
2021/01/27 08:20:46;;;;;;;38.42;21.70;;;;;;;4.70;100.00;99781.80;1836873;77;21144;-88
2021/01/27 08:23:26;;;;;;;39.15;21.75;;;;;;;4.80;100.00;99778.16;1832487;76;21458;-88
2021/01/27 08:26:06;;;;;;;32.15;17.82;;;;;;;4.83;100.00;99781.36;1846546;77;21144;-88
2021/01/27 08:28:42;;;;;;;24.92;15.13;;;;;;;4.87;100.00;99787.99;1847853;77;21129;-88
2021/01/27 08:31:17;;;;;;;25.62;15.53;;;;;;;4.90;100.00;99783.09;1847901;77;21267;-88
2021/01/27 08:33:54;;;;;;;24.00;14.87;;;;;;;5.05;100.00;99787.25;1847666;77;21145;-87
2021/01/27 08:36:39;;;;;;;22.25;13.80;;;;;;;5.14;100.00;99793.55;1839859;77;22825;-88
2021/01/27 08:39:12;;;;;;;22.50;14.25;;;;;;;5.14;100.00;99793.55;1748632;80;21100;-88
2021/01/27 08:42:01;;;;;;;26.60;13.98;;;;;;;5.23;100.00;99779.23;1808186;78;21163;-88
2021/01/27 08:44:40;;;;;;;17.82;12.00;;;;;;;5.23;100.00;99779.23;1831656;77;21204;-88
2021/01/27 08:47:23;;;;;;;24.40;12.47;;;;;;;5.31;100.00;99780.00;1732075;82;21184;-88
2021/01/27 08:49:58;;;;;;;19.98;11.88;;;;;;;5.37;100.00;99776.56;1831354;77;21201;-89
2021/01/27 08:52:40;;;;;;;19.82;12.03;;;;;;;5.48;100.00;99784.06;1747401;81;21174;-88
2021/01/27 08:55:31;;;;;;;;;;;;;;;5.50;100.00;99780.88;1775973;80;21525;-89
2021/01/27 08:58:25;;;;;;;21.68;12.68;;;;;;;5.55;100.00;99790.91;1747138;80;20479;-88
2021/01/27 09:00:58;;;;;;;26.60;13.93;;;;;;;5.51;100.00;99790.29;1743284;81;21590;-89
2021/01/27 09:03:50;;;;;;;22.42;13.10;;;;;;;5.47;100.00;99785.80;1773501;80;21224;-88
2021/01/27 09:06:44;;;;;;;21.20;12.60;;;;;;;5.44;100.00;99777.43;1745061;82;21171;-88
2021/01/27 09:09:24;;;;;;;20.17;12.05;;;;;;;5.44;100.00;99779.56;1773697;79;21613;-89
2021/01/27 09:12:02;;;;;;;20.27;11.85;;;;;;;5.43;100.00;99789.98;1774959;80;21572;-90
2021/01/27 09:14:30;;;;;;;19.40;12.07;;;;;;;5.46;100.00;99789.30;1760727;81;21564;-88
2021/01/27 09:17:00;;;;;;;19.48;12.25;;;;;;;5.42;100.00;99783.16;1760688;81;21199;-89
2021/01/27 09:19:31;;;;;;;17.62;11.50;;;;;;;5.44;100.00;99783.44;1789857;79;21135;-89
2021/01/27 09:22:09;;;;;;;19.05;10.98;;;;;;;5.52;100.00;99782.91;1793789;79;21187;-89
2021/01/27 09:24:44;;;;;;;20.05;11.65;;;;;;;5.65;100.00;99782.91;1776661;80;21210;-90
2021/01/27 09:27:17;;;;;;;19.80;11.68;;;;;;;5.73;100.00;99783.70;1774603;80;21214;-89
2021/01/27 09:29:59;;;;;;;18.27;12.00;;;;;;;5.79;100.00;99781.98;1776762;80;21352;-89
2021/01/27 09:32:28;;;;;;;;;;;;;;;5.78;100.00;99777.73;1754848;80;21178;-89
2021/01/27 09:35:20;;;;;;;16.35;10.30;;;;;;;5.81;100.00;99785.26;1776775;80;20231;-89
2021/01/27 09:38:12;;;;;;;18.92;11.33;;;;;;;5.82;100.00;99786.91;1755017;81;21074;-89
2021/01/27 09:40:50;;;;;;;15.68;10.25;;;;;;;5.79;100.00;99784.56;1755040;81;21150;-89
2021/01/27 09:43:22;;;;;;;17.27;10.55;;;;;;;5.76;100.00;99773.97;1753429;81;21378;-89
2021/01/27 09:45:50;;;;;;;;;;;;;;;5.77;100.00;99777.38;1757659;81;21626;-89
2021/01/27 09:48:23;;;;;;;21.50;11.48;;;;;;;5.72;100.00;99773.00;1755087;81;20488;-89
2021/01/27 09:50:57;;;;;;;13.48;10.05;;;;;;;5.69;100.00;99766.26;1755059;81;21103;-90
2021/01/27 09:53:30;;;;;;;17.17;10.82;;;;;;;5.69;100.00;99763.23;1753537;80;21174;-89
2021/01/27 09:55:58;;;;;;;19.77;10.93;;;;;;;5.76;100.00;99762.80;1814766;78;22297;-90
2021/01/27 09:58:28;;;;;;;20.20;10.80;;;;;;;5.85;100.00;99759.59;1814628;78;21130;-89
2021/01/27 10:01:05;;;;;;;18.48;10.50;;;;;;;5.92;100.00;99753.06;1814729;78;21077;-89
2021/01/27 10:03:41;;;;;;;18.17;10.30;;;;;;;5.95;100.00;99741.67;1814642;78;21671;-89
2021/01/27 10:06:34;;;;;;;14.50;9.60;;;;;;;5.99;100.00;99737.52;1807538;78;21168;-89
2021/01/27 10:09:07;;;;;;;17.17;10.50;;;;;;;6.03;100.00;99733.44;1814747;78;22298;-89
2021/01/27 10:11:36;;;;;;;18.87;11.03;;;;;;;6.06;100.00;99734.49;1808849;78;21207;-89
2021/01/27 10:14:15;;;;;;;20.68;11.15;;;;;;;6.10;100.00;99721.25;1814582;79;21149;-89
2021/01/27 10:17:00;;;;;;;14.10;9.90;;;;;;;6.15;100.00;99714.02;1810097;78;21129;-89
2021/01/27 10:19:33;;;;;;;15.15;9.45;;;;;;;6.19;100.00;99704.28;1814689;78;21516;-89
2021/01/27 10:22:05;;;;;;;18.98;10.88;;;;;;;6.22;100.00;99700.16;1814663;79;21325;-89
2021/01/27 10:24:54;;;;;;;19.98;11.55;;;;;;;6.24;100.00;99699.59;1814422;78;21161;-89
2021/01/27 10:27:39;;;;;;;18.98;11.10;;;;;;;6.23;100.00;99692.77;1814641;79;21171;-89
2021/01/27 10:30:21;;;;;;;18.92;10.10;;;;;;;6.24;100.00;99703.95;1814438;78;21244;-89
2021/01/27 10:32:49;;;;;;;16.70;9.40;;;;;;;6.25;100.00;99703.83;1814529;78;21192;-90
2021/01/27 10:35:26;;;;;;;;;;;;;;;6.28;100.00;99697.16;1817515;77;21085;-89
2021/01/27 10:38:12;;;;;;;21.45;10.53;;;;;;;6.36;100.00;99699.17;1814539;79;20350;-89
2021/01/27 10:41:04;;;;;;;17.37;9.53;;;;;;;6.40;100.00;99692.02;1810540;78;21160;-90
2021/01/27 10:43:32;;;;;;;;;;;;;;;6.40;100.00;99695.90;1808084;79;21171;-90
2021/01/27 10:46:00;;;;;;;21.80;9.78;;;;;;;6.41;100.00;99688.02;1814604;78;20263;-89
2021/01/27 10:48:30;;;;;;;21.20;9.68;;;;;;;6.43;100.00;99687.45;1814597;79;21568;-89
2021/01/27 10:51:05;;;;;;;16.97;10.43;;;;;;;6.46;100.00;99694.16;1814056;78;21223;-90
2021/01/27 10:53:43;;;;;;;19.00;9.45;;;;;;;6.48;100.00;99689.70;1796984;79;21157;-90
2021/01/27 10:56:17;;;;;;;17.62;8.78;;;;;;;6.51;100.00;99685.61;1798507;79;21149;-90
2021/01/27 10:58:47;;;;;;;17.00;8.83;;;;;;;6.56;100.00;99691.75;1798509;78;21138;-90
2021/01/27 11:01:15;;;;;;;19.27;9.98;;;;;;;6.62;100.00;99690.81;1798420;78;21177;-90
2021/01/27 11:03:43;;;;;;;20.62;9.58;;;;;;;6.72;100.00;99694.02;1798426;78;21066;-90
2021/01/27 11:06:13;;;;;;;18.25;10.32;;;;;;;6.79;100.00;99690.03;1798401;78;21624;-90
2021/01/27 11:08:43;;;;;;;18.77;9.25;;;;;;;6.86;100.00;99691.23;1761094;80;22100;-89
2021/01/27 11:11:13;;;;;;;21.57;9.13;;;;;;;6.89;100.00;99701.36;1754947;80;21551;-89
2021/01/27 11:13:42;;;;;;;14.15;8.75;;;;;;;6.91;100.00;99703.83;1755147;81;21351;-90
2021/01/27 11:16:12;;;;;;;17.62;10.40;;;;;;;6.94;100.00;99698.44;1754972;80;21095;-90
2021/01/27 11:18:40;;;;;;;17.80;9.08;;;;;;;6.92;100.00;99695.97;1754964;80;21072;-90
2021/01/27 11:21:09;;;;;;;21.23;9.18;;;;;;;6.97;100.00;99692.20;1754891;81;21079;-89
2021/01/27 11:23:37;;;;;;;20.10;10.48;;;;;;;7.00;100.00;99692.80;1755137;81;21175;-89
2021/01/27 11:26:04;;;;;;;23.62;11.08;;;;;;;7.01;100.00;99687.16;1755022;81;21361;-90
2021/01/27 11:28:33;;;;;;;16.48;9.45;;;;;;;7.03;100.00;99682.67;1754967;80;21134;-90
2021/01/27 11:31:01;;;;;;;19.85;10.25;;;;;;;7.00;100.00;99673.86;1755012;81;21617;-90
2021/01/27 11:33:29;;;;;;;22.17;10.18;;;;;;;6.98;100.00;99681.72;1755062;80;21237;-90
2021/01/27 11:35:57;;;;;;;20.05;9.60;;;;;;;6.99;100.00;99680.78;1755219;81;21520;-90
2021/01/27 11:38:25;;;;;;;16.32;9.18;;;;;;;7.00;100.00;99684.22;1755083;80;21558;-90
2021/01/27 11:40:53;;;;;;;17.20;9.38;;;;;;;7.02;100.00;99684.91;1755101;81;21167;-90
2021/01/27 11:43:21;;;;;;;20.60;10.28;;;;;;;7.08;100.00;99680.58;1755233;81;21159;-89
2021/01/27 11:45:49;;;;;;;18.32;10.95;;;;;;;7.11;100.00;99677.74;1755134;81;21115;-90
2021/01/27 11:48:19;;;;;;;21.82;11.83;;;;;;;7.12;100.00;99685.06;1751400;81;21527;-90
2021/01/27 11:50:50;;;;;;;19.25;11.97;;;;;;;7.14;100.00;99676.23;1755256;80;21689;-90
2021/01/27 11:53:19;;;;;;;18.60;10.63;;;;;;;7.15;100.00;99671.41;1747145;81;21583;-90
2021/01/27 11:55:47;;;;;;;25.15;12.03;;;;;;;7.17;100.00;99667.40;1833199;77;21107;-90
2021/01/27 11:58:15;;;;;;;24.63;10.82;;;;;;;7.17;100.00;99661.73;1848420;77;21159;-89
2021/01/27 12:00:44;;;;;;;16.93;9.78;;;;;;;7.18;100.00;99656.91;1848761;77;21130;-91
2021/01/27 12:03:12;;;;;;;16.27;9.88;;;;;;;7.19;100.00;99656.46;1848746;77;21349;-91
2021/01/27 12:05:40;;;;;;;16.93;9.88;;;;;;;7.22;100.00;99650.58;1848674;77;21112;-91
2021/01/27 12:08:08;;;;;;;21.00;10.80;;;;;;;7.23;100.00;99647.05;1848639;77;21966;-91
2021/01/27 12:10:37;;;;;;;19.07;14.05;;;;;;;7.23;100.00;99643.16;1848407;77;21194;-91
2021/01/27 12:13:05;;;;;;;32.95;19.95;;;;;;;7.24;100.00;99643.52;1848400;77;21146;-91
2021/01/27 12:15:33;;;;;;;29.42;20.45;;;;;;;7.26;100.00;99629.16;1848438;77;22102;-90
2021/01/27 12:18:02;;;;;;;33.73;22.95;;;;;;;7.26;100.00;99619.61;1848448;77;21147;-92
2021/01/27 12:20:30;;;;;;;31.00;20.02;;;;;;;7.28;100.00;99620.80;1848481;77;21138;-91
2021/01/27 12:22:58;;;;;;;25.08;14.20;;;;;;;7.30;100.00;99618.09;1842396;76;21587;-90
2021/01/27 12:25:27;;;;;;;26.57;15.25;;;;;;;7.29;100.00;99600.90;1832101;76;21129;-89
2021/01/27 12:27:55;;;;;;;23.35;12.85;;;;;;;7.30;100.00;99595.59;1823027;77;21528;-92
2021/01/27 12:30:23;;;;;;;22.25;12.65;;;;;;;7.31;100.00;99588.17;1799289;77;21096;-92
2021/01/27 12:32:52;;;;;;;22.45;13.22;;;;;;;7.33;100.00;99594.55;1845843;76;21073;-90
2021/01/27 12:35:22;;;;;;;29.82;12.05;;;;;;;7.33;100.00;99597.14;1814967;79;21112;-89
2021/01/27 12:37:51;;;;;;;21.15;10.90;;;;;;;7.32;100.00;99598.08;1824891;77;21135;-90
2021/01/27 12:40:21;;;;;;;19.77;10.93;;;;;;;7.33;100.00;99601.03;1844921;77;22136;-89
2021/01/27 12:42:51;;;;;;;16.50;10.30;;;;;;;7.33;100.00;99604.91;1848315;77;21120;-89
2021/01/27 12:45:24;;;;;;;17.60;9.15;;;;;;;7.32;100.00;99595.01;1845545;77;21169;-90
2021/01/27 12:47:53;;;;;;;15.38;8.70;;;;;;;7.31;100.00;99584.78;1831004;77;21177;-90
2021/01/27 12:50:23;;;;;;;16.93;9.95;;;;;;;7.30;100.00;99579.24;1814861;79;21085;-90
2021/01/27 12:52:51;;;;;;;19.42;9.88;;;;;;;7.28;100.00;99574.19;1814120;77;21493;-90
2021/01/27 12:55:21;;;;;;;16.30;8.73;;;;;;;7.30;100.00;99570.18;1836133;76;21549;-89
2021/01/27 12:57:50;;;;;;;21.35;8.93;;;;;;;7.31;100.00;99567.45;1839222;77;21152;-90
2021/01/27 13:00:23;;;;;;;21.35;9.18;;;;;;;7.33;100.00;99567.36;1848051;77;21160;-89
2021/01/27 13:02:53;;;;;;;18.00;8.90;;;;;;;7.31;100.00;99557.10;1845800;76;21160;-90
2021/01/27 13:05:25;;;;;;;15.53;8.98;;;;;;;7.32;100.00;99546.29;1831516;77;21351;-90
2021/01/27 13:07:53;;;;;;;19.00;9.45;;;;;;;7.32;100.00;99550.17;1815060;79;25688;-90
2021/01/27 13:10:22;;;;;;;18.32;8.60;;;;;;;7.28;100.00;99539.23;1814959;79;21101;-90
2021/01/27 13:12:53;;;;;;;20.32;8.68;;;;;;;7.26;100.00;99533.34;1814609;79;21647;-90
2021/01/27 13:15:22;;;;;;;19.00;10.08;;;;;;;7.23;100.00;99517.58;1814795;78;21153;-90
2021/01/27 13:17:51;;;;;;;17.50;10.30;;;;;;;7.20;100.00;99506.16;1814905;78;21351;-90